LFKB/BIA METAR and TAF weather

Enter ICAO airport designator
Station Type Date Time Source
LFKB METAR 2020/03/31 07:30 UTC NOAA

LFKB 310730Z AUTO VRB02KT 9999 FEW015/// BKN023/// BKN036/// ///CB 13/10 Q1016 TEMPO SHRA BECMG 04012KT


Station Type Date Time Source
LFKB Decoded METAR 2020/03/31 07:30 UTC NOAA

Bastia, France (LFKB) 42-33N 009-29E 12M
Mar 31, 2020 - 03:30 AM EDT / 2020.03.31 0730 UTC
Wind: Variable at 2 MPH (2 KT):0
Visibility: greater than 7 mile(s):0
Sky conditions: mostly cloudy
Weather: Cumulonimbus clouds observed
Temperature: 55 F (13 C)
Dew Point: 50 F (10 C)
Relative Humidity: 81%
Pressure (altimeter): 30.00 in. Hg (1016 hPa)
ob: LFKB 310730Z AUTO VRB02KT 9999 FEW015/// BKN023/// BKN036/// ///CB 13/10 Q1016 TEMPO SHRA BECMG 04012KT
cycle: 7

Station Type Date Time Source
LFKB TAF 2020/03/31 03:42 UTC NOAA

TAF TAF LFKB 310200Z 3103/0103 22005KT 9999 NSC TX13/3112Z TN07/3103Z
BECMG 3103/3106 SCT026TCU BKN040
BECMG 3107/3110 04012KT
TEMPO 3104/3115 SHRA SCT020CB BKN040
BECMG 3116/3119 NSC

Example: see airport list